This demonstration page uses our WeatherBlox Daily Observations layout. Learn more.

Left ArrowRight Arrow

39.08367, -84.50855

Hourly Observations for December 26, 2020

Temp ( °F °C ) Dew Point ( °F °C ) Humidity (%) Winds ( mph kmh ) Pressure ( in mb ) Visibility ( mi km ) Precip ( " mm )
12:53 am 00:53 Clear 14 -10 6 -14.4 71 71 SSW 13 20 30.15 1021 10 16.0934 0 0
1:53 am 01:53 Clear 13 -10.6 6 -14.4 74 74 SSW 12 19 30.12 1020 10 16.0934 0 0
2:53 am 02:53 Mostly Cloudy 15 -9.4 7 -13.9 70 70 SSW 9 15 30.12 1020 10 16.0934 0 0
3:53 am 03:53 Cloudy 16 -8.9 7 -13.9 67 67 SSW 10 17 30.12 1020 10 16.0934 0 0
4:53 am 04:53 Cloudy 17 -8.3 7 -13.9 64 64 SSW 13 20 30.1 1019 10 16.0934 0 0
5:53 am 05:53 Cloudy 17 -8.3 8 -13.3 68 68 SSW 14 22 30.1 1019 10 16.0934 0 0
6:53 am 06:53 Partly Cloudy 16 -8.9 7 -13.9 67 67 SSW 12 19 30.09 1019 10 16.0934 0 0
7:53 am 07:53 Clear 16 -8.9 7 -13.9 67 67 SSW 10 17 30.1 1019 10 16.0934 0 0
8:53 am 08:53 Sunny 18 -7.8 9 -12.8 68 68 SSW 7 11 30.1 1019 10 16.0934 0 0
9:53 am 09:53 Sunny 22 -5.6 10 -12.2 60 60 SW 10 17 30.12 1020 10 16.0934 0 0
10:53 am 10:53 Sunny 26 -3.3 12 -11.1 55 55 SW 14 22 30.11 1020 10 16.0934 0 0
11:53 am 11:53 Sunny 30 -1.1 14 -10 51 51 SSW 9 15 30.08 1019 10 16.0934 0 0
12:53 pm 12:53 Sunny 33 0.6 15 -9.4 47 47 WSW 9 15 30.06 1018 10 16.0934 0 0
1:53 pm 13:53 Sunny 36 2.2 17 -8.3 46 46 SW 12 19 30.04 1017 10 16.0934 0 0
2:53 pm 14:53 Sunny 38 3.3 18 -7.8 44 44 WSW 10 17 30.04 1017 10 16.0934 0 0
3:53 pm 15:53 Sunny 38 3.3 19 -7.2 46 46 WSW 8 13 30.04 1017 10 16.0934 0 0
4:53 pm 16:53 Sunny 35 1.7 20 -6.7 54 54 SSW 9 15 30.04 1017 10 16.0934 0 0
5:53 pm 17:53 Clear 30 -1.1 19 -7.2 64 64 S 6 9 30.05 1018 10 16.0934 0 0
6:53 pm 18:53 Clear 27 -2.8 20 -6.7 75 75 Calm 30.08 1019 10 16.0934 0 0
7:53 pm 19:53 Clear 24 -4.4 19 -7.2 81 81 Calm 30.09 1019 10 16.0934 0 0
8:53 pm 20:53 Clear 24 -4.4 20 -6.7 84 84 Calm 30.09 1019 10 16.0934 0 0
9:53 pm 21:53 Clear 23 -5 19 -7.2 85 85 Calm 30.09 1019 10 16.0934 0 0
10:53 pm 22:53 Clear 21 -6.1 18 -7.8 88 88 Calm 30.09 1019 10 16.0934 0 0
11:53 pm 23:53 Clear 21 -6.1 19 -7.2 92 92 Calm 30.1 1019 9 14.48406 0 0

Powered by AerisWeather